Terminal Aerodrome Forecast
Issued by NWS Charleston, WV

Home | Current Version | Previous Version | Text Only | Print | Product List | Glossary On
Versions: 1 2 3 4 5 6 7 8 9 10 11 12 13 14 15 16 17 18 19 20 21 22 23 24 25 26 27 28 29 30 31
000
FTUS41 KRLX 052337
TAFPKB
TAF
KPKB 052337Z 0600/0624 15004KT P6SM OVC070
     FM060600 00000KT 5SM BR SCT035
     FM060700 00000KT 2SM BR BKN018
     FM061400 00000KT P6SM BKN014
     FM061600 VRB03KT P6SM BKN020
     FM061800 28004KT P6SM VCTS BKN025CB
     FM062000 23004KT P6SM VCTS BKN035CB
     FM062300 VRB03KT P6SM BKN035=

USA.gov is the U.S. government's official web portal to all federal, state and local government web resources and services.